sensor_id;sensor_type;location;lat;lon;timestamp;temperature;humidity
46139;DHT22;32398;49.112;8.598;2023-04-08T00:01:40;10.50;84.70
46139;DHT22;32398;49.112;8.598;2023-04-08T00:04:08;10.50;84.60
46139;DHT22;32398;49.112;8.598;2023-04-08T00:06:34;10.60;84.70
46139;DHT22;32398;49.112;8.598;2023-04-08T00:09:01;10.50;84.80
46139;DHT22;32398;49.112;8.598;2023-04-08T00:11:28;10.40;84.80
46139;DHT22;32398;49.112;8.598;2023-04-08T00:13:55;10.40;84.80
46139;DHT22;32398;49.112;8.598;2023-04-08T00:16:21;10.40;84.80
46139;DHT22;32398;49.112;8.598;2023-04-08T00:18:48;10.40;84.90
46139;DHT22;32398;49.112;8.598;2023-04-08T00:21:16;10.40;85.00
46139;DHT22;32398;49.112;8.598;2023-04-08T00:23:45;10.40;85.00
46139;DHT22;32398;49.112;8.598;2023-04-08T00:26:11;10.40;85.00
46139;DHT22;32398;49.112;8.598;2023-04-08T00:28:38;10.40;85.00
46139;DHT22;32398;49.112;8.598;2023-04-08T00:31:05;10.40;85.10
46139;DHT22;32398;49.112;8.598;2023-04-08T00:33:31;10.40;85.20
46139;DHT22;32398;49.112;8.598;2023-04-08T00:35:58;10.30;85.20
46139;DHT22;32398;49.112;8.598;2023-04-08T00:38:26;10.40;85.20
46139;DHT22;32398;49.112;8.598;2023-04-08T00:40:52;10.40;85.30
46139;DHT22;32398;49.112;8.598;2023-04-08T00:43:19;10.30;85.20
46139;DHT22;32398;49.112;8.598;2023-04-08T00:45:46;10.30;85.20
46139;DHT22;32398;49.112;8.598;2023-04-08T00:48:12;10.30;85.20
46139;DHT22;32398;49.112;8.598;2023-04-08T00:50:39;10.30;85.30
46139;DHT22;32398;49.112;8.598;2023-04-08T00:53:05;10.30;85.30
46139;DHT22;32398;49.112;8.598;2023-04-08T00:55:33;10.30;85.30
46139;DHT22;32398;49.112;8.598;2023-04-08T00:58:00;10.20;85.30
46139;DHT22;32398;49.112;8.598;2023-04-08T01:00:26;10.30;85.40
46139;DHT22;32398;49.112;8.598;2023-04-08T01:02:56;10.30;85.40
46139;DHT22;32398;49.112;8.598;2023-04-08T01:05:27;10.30;85.40
46139;DHT22;32398;49.112;8.598;2023-04-08T01:07:56;10.30;85.50
46139;DHT22;32398;49.112;8.598;2023-04-08T01:10:25;10.30;85.50
46139;DHT22;32398;49.112;8.598;2023-04-08T01:12:55;10.10;85.50
46139;DHT22;32398;49.112;8.598;2023-04-08T01:15:22;10.20;85.60
46139;DHT22;32398;49.112;8.598;2023-04-08T01:17:49;10.20;85.70
46139;DHT22;32398;49.112;8.598;2023-04-08T01:20:18;10.20;85.80
46139;DHT22;32398;49.112;8.598;2023-04-08T01:22:51;10.20;85.90
46139;DHT22;32398;49.112;8.598;2023-04-08T01:25:22;10.20;85.90
46139;DHT22;32398;49.112;8.598;2023-04-08T01:27:51;10.20;86.00
46139;DHT22;32398;49.112;8.598;2023-04-08T01:30:20;10.20;86.10
46139;DHT22;32398;49.112;8.598;2023-04-08T01:32:48;10.20;86.10
46139;DHT22;32398;49.112;8.598;2023-04-08T01:35:16;10.10;86.10
46139;DHT22;32398;49.112;8.598;2023-04-08T01:37:43;10.20;86.20
46139;DHT22;32398;49.112;8.598;2023-04-08T01:40:10;10.10;86.10
46139;DHT22;32398;49.112;8.598;2023-04-08T01:42:37;10.20;86.10
46139;DHT22;32398;49.112;8.598;2023-04-08T01:45:05;10.10;86.00
46139;DHT22;32398;49.112;8.598;2023-04-08T01:47:32;10.10;86.00
46139;DHT22;32398;49.112;8.598;2023-04-08T01:49:59;10.10;86.00
46139;DHT22;32398;49.112;8.598;2023-04-08T01:52:26;10.10;86.10
46139;DHT22;32398;49.112;8.598;2023-04-08T01:54:54;10.00;86.10
46139;DHT22;32398;49.112;8.598;2023-04-08T01:57:21;10.10;86.10
46139;DHT22;32398;49.112;8.598;2023-04-08T01:59:49;10.10;86.20
46139;DHT22;32398;49.112;8.598;2023-04-08T02:02:18;10.10;86.30
46139;DHT22;32398;49.112;8.598;2023-04-08T02:04:45;10.10;86.30
46139;DHT22;32398;49.112;8.598;2023-04-08T02:07:11;10.10;86.40
46139;DHT22;32398;49.112;8.598;2023-04-08T02:09:38;10.00;86.30
46139;DHT22;32398;49.112;8.598;2023-04-08T02:12:04;10.00;86.30
46139;DHT22;32398;49.112;8.598;2023-04-08T02:14:31;10.00;86.40
46139;DHT22;32398;49.112;8.598;2023-04-08T02:16:59;10.00;86.40
46139;DHT22;32398;49.112;8.598;2023-04-08T02:19:28;10.00;86.50
46139;DHT22;32398;49.112;8.598;2023-04-08T02:21:56;10.00;86.50
46139;DHT22;32398;49.112;8.598;2023-04-08T02:24:24;10.10;86.60
46139;DHT22;32398;49.112;8.598;2023-04-08T02:26:52;10.00;86.50
46139;DHT22;32398;49.112;8.598;2023-04-08T02:29:20;10.00;86.50
46139;DHT22;32398;49.112;8.598;2023-04-08T02:31:47;9.90;86.50
46139;DHT22;32398;49.112;8.598;2023-04-08T02:34:14;10.10;86.80
46139;DHT22;32398;49.112;8.598;2023-04-08T02:36:42;10.00;86.80
46139;DHT22;32398;49.112;8.598;2023-04-08T02:39:11;10.00;86.80
46139;DHT22;32398;49.112;8.598;2023-04-08T02:41:38;10.00;86.80
46139;DHT22;32398;49.112;8.598;2023-04-08T02:44:04;10.00;86.90
46139;DHT22;32398;49.112;8.598;2023-04-08T02:46:31;9.90;86.80
46139;DHT22;32398;49.112;8.598;2023-04-08T02:48:57;9.90;86.90
46139;DHT22;32398;49.112;8.598;2023-04-08T02:51:24;9.90;86.90
46139;DHT22;32398;49.112;8.598;2023-04-08T02:53:52;9.90;87.10
46139;DHT22;32398;49.112;8.598;2023-04-08T02:56:19;9.90;87.00
46139;DHT22;32398;49.112;8.598;2023-04-08T02:58:46;9.90;87.00
46139;DHT22;32398;49.112;8.598;2023-04-08T03:01:12;9.90;87.10
46139;DHT22;32398;49.112;8.598;2023-04-08T03:03:39;9.90;87.10
46139;DHT22;32398;49.112;8.598;2023-04-08T03:06:05;9.90;87.20
46139;DHT22;32398;49.112;8.598;2023-04-08T03:08:32;9.90;87.20
46139;DHT22;32398;49.112;8.598;2023-04-08T03:11:00;9.90;87.20
46139;DHT22;32398;49.112;8.598;2023-04-08T03:13:26;9.90;87.30
46139;DHT22;32398;49.112;8.598;2023-04-08T03:15:54;9.90;87.30
46139;DHT22;32398;49.112;8.598;2023-04-08T03:18:20;9.80;87.20
46139;DHT22;32398;49.112;8.598;2023-04-08T03:20:47;10.40;87.60
46139;DHT22;32398;49.112;8.598;2023-04-08T03:23:13;9.80;87.30
46139;DHT22;32398;49.112;8.598;2023-04-08T03:25:40;9.80;87.30
46139;DHT22;32398;49.112;8.598;2023-04-08T03:28:08;9.80;87.30
46139;DHT22;32398;49.112;8.598;2023-04-08T03:30:35;9.80;87.30
46139;DHT22;32398;49.112;8.598;2023-04-08T03:33:01;9.80;87.40
46139;DHT22;32398;49.112;8.598;2023-04-08T03:35:32;9.80;87.40
46139;DHT22;32398;49.112;8.598;2023-04-08T03:37:58;9.70;87.40
46139;DHT22;32398;49.112;8.598;2023-04-08T03:40:25;9.70;87.40
46139;DHT22;32398;49.112;8.598;2023-04-08T03:42:51;9.70;87.40
46139;DHT22;32398;49.112;8.598;2023-04-08T03:45:19;9.70;87.40
46139;DHT22;32398;49.112;8.598;2023-04-08T03:47:46;9.70;87.40
46139;DHT22;32398;49.112;8.598;2023-04-08T03:50:12;9.70;87.40
46139;DHT22;32398;49.112;8.598;2023-04-08T03:52:39;9.60;87.30
46139;DHT22;32398;49.112;8.598;2023-04-08T03:55:06;9.60;87.40
46139;DHT22;32398;49.112;8.598;2023-04-08T03:57:33;9.60;87.40
46139;DHT22;32398;49.112;8.598;2023-04-08T03:59:59;9.60;87.40
46139;DHT22;32398;49.112;8.598;2023-04-08T04:02:27;9.60;87.50
46139;DHT22;32398;49.112;8.598;2023-04-08T04:04:54;9.60;87.50
46139;DHT22;32398;49.112;8.598;2023-04-08T04:07:20;9.50;87.50
46139;DHT22;32398;49.112;8.598;2023-04-08T04:09:47;9.50;87.50
46139;DHT22;32398;49.112;8.598;2023-04-08T04:12:13;9.50;87.50
46139;DHT22;32398;49.112;8.598;2023-04-08T04:14:40;9.50;87.60
46139;DHT22;32398;49.112;8.598;2023-04-08T04:17:07;9.50;87.70
46139;DHT22;32398;49.112;8.598;2023-04-08T04:19:34;9.50;87.70
46139;DHT22;32398;49.112;8.598;2023-04-08T04:22:01;9.50;87.70
46139;DHT22;32398;49.112;8.598;2023-04-08T04:24:27;9.50;87.80
46139;DHT22;32398;49.112;8.598;2023-04-08T04:26:54;9.50;87.80
46139;DHT22;32398;49.112;8.598;2023-04-08T04:29:21;9.50;87.80
46139;DHT22;32398;49.112;8.598;2023-04-08T04:31:47;9.50;87.80
46139;DHT22;32398;49.112;8.598;2023-04-08T04:34:14;9.50;87.90
46139;DHT22;32398;49.112;8.598;2023-04-08T04:36:42;9.50;88.00
46139;DHT22;32398;49.112;8.598;2023-04-08T04:39:08;9.40;88.10
46139;DHT22;32398;49.112;8.598;2023-04-08T04:41:35;9.40;88.10
46139;DHT22;32398;49.112;8.598;2023-04-08T04:44:04;9.50;88.30
46139;DHT22;32398;49.112;8.598;2023-04-08T04:46:31;9.40;88.30
46139;DHT22;32398;49.112;8.598;2023-04-08T04:48:58;9.40;88.30
46139;DHT22;32398;49.112;8.598;2023-04-08T04:51:24;9.40;88.30
46139;DHT22;32398;49.112;8.598;2023-04-08T04:53:52;9.40;88.30
46139;DHT22;32398;49.112;8.598;2023-04-08T04:56:19;9.40;88.30
46139;DHT22;32398;49.112;8.598;2023-04-08T04:58:45;9.30;88.20
46139;DHT22;32398;49.112;8.598;2023-04-08T05:01:12;9.40;88.30
46139;DHT22;32398;49.112;8.598;2023-04-08T05:03:38;9.30;88.20
46139;DHT22;32398;49.112;8.598;2023-04-08T05:06:05;9.30;88.20
46139;DHT22;32398;49.112;8.598;2023-04-08T05:08:32;9.30;89.00
46139;DHT22;32398;49.112;8.598;2023-04-08T05:10:59;9.30;88.30
46139;DHT22;32398;49.112;8.598;2023-04-08T05:13:26;9.30;88.30
46139;DHT22;32398;49.112;8.598;2023-04-08T05:15:53;9.30;88.30
46139;DHT22;32398;49.112;8.598;2023-04-08T05:18:19;9.20;88.20
46139;DHT22;32398;49.112;8.598;2023-04-08T05:20:46;9.20;88.30
46139;DHT22;32398;49.112;8.598;2023-04-08T05:23:12;9.20;88.20
46139;DHT22;32398;49.112;8.598;2023-04-08T05:25:39;9.20;88.20
46139;DHT22;32398;49.112;8.598;2023-04-08T05:28:07;9.20;88.30
46139;DHT22;32398;49.112;8.598;2023-04-08T05:30:33;9.10;88.20
46139;DHT22;32398;49.112;8.598;2023-04-08T05:33:00;9.10;88.20
46139;DHT22;32398;49.112;8.598;2023-04-08T05:35:26;9.10;88.20
46139;DHT22;32398;49.112;8.598;2023-04-08T05:37:53;9.10;88.20
46139;DHT22;32398;49.112;8.598;2023-04-08T05:40:19;9.10;88.30
46139;DHT22;32398;49.112;8.598;2023-04-08T05:42:46;9.10;88.30
46139;DHT22;32398;49.112;8.598;2023-04-08T05:45:14;9.10;88.30
46139;DHT22;32398;49.112;8.598;2023-04-08T05:47:41;9.00;88.20
46139;DHT22;32398;49.112;8.598;2023-04-08T05:50:08;9.00;88.20
46139;DHT22;32398;49.112;8.598;2023-04-08T05:52:35;9.00;88.20
46139;DHT22;32398;49.112;8.598;2023-04-08T05:55:02;9.00;88.30
46139;DHT22;32398;49.112;8.598;2023-04-08T05:57:28;9.00;88.20
46139;DHT22;32398;49.112;8.598;2023-04-08T05:59:55;9.00;88.20
46139;DHT22;32398;49.112;8.598;2023-04-08T06:02:23;9.00;88.30
46139;DHT22;32398;49.112;8.598;2023-04-08T06:04:49;9.00;88.30
46139;DHT22;32398;49.112;8.598;2023-04-08T06:07:16;9.00;88.30
46139;DHT22;32398;49.112;8.598;2023-04-08T06:09:43;9.00;88.40
46139;DHT22;32398;49.112;8.598;2023-04-08T06:12:09;9.00;88.40
46139;DHT22;32398;49.112;8.598;2023-04-08T06:14:36;9.00;88.40
46139;DHT22;32398;49.112;8.598;2023-04-08T06:17:03;9.00;88.40
46139;DHT22;32398;49.112;8.598;2023-04-08T06:19:30;9.00;88.50
46139;DHT22;32398;49.112;8.598;2023-04-08T06:21:57;8.90;88.50
46139;DHT22;32398;49.112;8.598;2023-04-08T06:24:24;9.00;88.50
46139;DHT22;32398;49.112;8.598;2023-04-08T06:26:51;9.00;88.50
46139;DHT22;32398;49.112;8.598;2023-04-08T06:29:18;9.00;88.60
46139;DHT22;32398;49.112;8.598;2023-04-08T06:31:45;9.00;88.60
46139;DHT22;32398;49.112;8.598;2023-04-08T06:34:11;9.00;88.70
46139;DHT22;32398;49.112;8.598;2023-04-08T06:36:39;9.00;88.70
46139;DHT22;32398;49.112;8.598;2023-04-08T06:39:06;9.00;88.70
46139;DHT22;32398;49.112;8.598;2023-04-08T06:41:32;9.00;88.80
46139;DHT22;32398;49.112;8.598;2023-04-08T06:43:59;9.00;88.80
46139;DHT22;32398;49.112;8.598;2023-04-08T06:46:25;9.00;88.90
46139;DHT22;32398;49.112;8.598;2023-04-08T06:48:52;9.00;88.80
46139;DHT22;32398;49.112;8.598;2023-04-08T06:51:19;9.00;88.80
46139;DHT22;32398;49.112;8.598;2023-04-08T06:53:47;9.00;88.80
46139;DHT22;32398;49.112;8.598;2023-04-08T06:56:14;9.00;88.80
46139;DHT22;32398;49.112;8.598;2023-04-08T06:58:40;9.00;88.80
46139;DHT22;32398;49.112;8.598;2023-04-08T07:01:07;9.00;88.90
46139;DHT22;32398;49.112;8.598;2023-04-08T07:03:33;9.10;89.00
46139;DHT22;32398;49.112;8.598;2023-04-08T07:06:00;9.00;89.10
46139;DHT22;32398;49.112;8.598;2023-04-08T07:08:26;9.00;89.20
46139;DHT22;32398;49.112;8.598;2023-04-08T07:10:54;9.10;89.20
46139;DHT22;32398;49.112;8.598;2023-04-08T07:13:21;9.10;89.20
46139;DHT22;32398;49.112;8.598;2023-04-08T07:15:47;9.10;89.30
46139;DHT22;32398;49.112;8.598;2023-04-08T07:18:14;9.10;89.30
46139;DHT22;32398;49.112;8.598;2023-04-08T07:20:40;9.10;89.40
46139;DHT22;32398;49.112;8.598;2023-04-08T07:23:07;9.10;89.40
46139;DHT22;32398;49.112;8.598;2023-04-08T07:25:34;9.10;89.50
46139;DHT22;32398;49.112;8.598;2023-04-08T07:28:01;9.10;89.70
46139;DHT22;32398;49.112;8.598;2023-04-08T07:30:28;9.10;89.70
46139;DHT22;32398;49.112;8.598;2023-04-08T07:32:55;9.10;89.80
46139;DHT22;32398;49.112;8.598;2023-04-08T07:35:22;9.10;89.80
46139;DHT22;32398;49.112;8.598;2023-04-08T07:37:49;9.20;90.00
46139;DHT22;32398;49.112;8.598;2023-04-08T07:40:17;9.20;90.00
46139;DHT22;32398;49.112;8.598;2023-04-08T07:42:44;9.20;90.00
46139;DHT22;32398;49.112;8.598;2023-04-08T07:45:11;9.20;90.00
46139;DHT22;32398;49.112;8.598;2023-04-08T07:47:38;9.20;89.90
46139;DHT22;32398;49.112;8.598;2023-04-08T07:50:05;9.20;89.80
46139;DHT22;32398;49.112;8.598;2023-04-08T07:52:32;9.20;89.70
46139;DHT22;32398;49.112;8.598;2023-04-08T07:54:58;9.20;89.70
46139;DHT22;32398;49.112;8.598;2023-04-08T07:57:26;9.20;89.60
46139;DHT22;32398;49.112;8.598;2023-04-08T07:59:52;9.20;89.60
46139;DHT22;32398;49.112;8.598;2023-04-08T08:02:20;9.30;89.70
46139;DHT22;32398;49.112;8.598;2023-04-08T08:04:47;9.30;89.90
46139;DHT22;32398;49.112;8.598;2023-04-08T08:07:13;9.30;90.00
46139;DHT22;32398;49.112;8.598;2023-04-08T08:09:40;9.30;90.00
46139;DHT22;32398;49.112;8.598;2023-04-08T08:12:07;9.30;90.00
46139;DHT22;32398;49.112;8.598;2023-04-08T08:14:33;9.40;90.00
46139;DHT22;32398;49.112;8.598;2023-04-08T08:17:00;9.40;90.00
46139;DHT22;32398;49.112;8.598;2023-04-08T08:19:29;9.40;90.00
46139;DHT22;32398;49.112;8.598;2023-04-08T08:21:56;9.40;90.00
46139;DHT22;32398;49.112;8.598;2023-04-08T08:24:22;9.50;90.00
46139;DHT22;32398;49.112;8.598;2023-04-08T08:26:50;9.50;90.00
46139;DHT22;32398;49.112;8.598;2023-04-08T08:29:16;9.50;89.80
46139;DHT22;32398;49.112;8.598;2023-04-08T08:31:43;9.60;89.70
46139;DHT22;32398;49.112;8.598;2023-04-08T08:34:09;9.60;89.60
46139;DHT22;32398;49.112;8.598;2023-04-08T08:36:37;9.60;89.50
46139;DHT22;32398;49.112;8.598;2023-04-08T08:39:04;9.60;89.40
46139;DHT22;32398;49.112;8.598;2023-04-08T08:41:33;9.60;89.30
46139;DHT22;32398;49.112;8.598;2023-04-08T08:44:01;9.70;89.20
46139;DHT22;32398;49.112;8.598;2023-04-08T08:46:28;9.70;89.00
46139;DHT22;32398;49.112;8.598;2023-04-08T08:48:54;9.80;88.90
46139;DHT22;32398;49.112;8.598;2023-04-08T08:51:22;9.80;89.40
46139;DHT22;32398;49.112;8.598;2023-04-08T08:53:50;9.80;88.60
46139;DHT22;32398;49.112;8.598;2023-04-08T08:56:17;9.80;88.40
46139;DHT22;32398;49.112;8.598;2023-04-08T08:58:43;9.90;88.40
46139;DHT22;32398;49.112;8.598;2023-04-08T09:01:29;9.90;88.40
46139;DHT22;32398;49.112;8.598;2023-04-08T09:04:05;9.90;88.40
46139;DHT22;32398;49.112;8.598;2023-04-08T09:06:32;10.00;88.30
46139;DHT22;32398;49.112;8.598;2023-04-08T09:08:59;10.00;88.20
46139;DHT22;32398;49.112;8.598;2023-04-08T09:11:27;10.00;88.10
46139;DHT22;32398;49.112;8.598;2023-04-08T09:13:53;10.00;88.00
46139;DHT22;32398;49.112;8.598;2023-04-08T09:16:21;10.00;87.90
46139;DHT22;32398;49.112;8.598;2023-04-08T09:18:48;10.10;87.90
46139;DHT22;32398;49.112;8.598;2023-04-08T09:21:15;10.10;87.80
46139;DHT22;32398;49.112;8.598;2023-04-08T09:23:42;10.20;87.60
46139;DHT22;32398;49.112;8.598;2023-04-08T09:26:11;10.20;87.20
46139;DHT22;32398;49.112;8.598;2023-04-08T09:28:39;10.30;87.10
46139;DHT22;32398;49.112;8.598;2023-04-08T09:31:17;10.30;86.40
46139;DHT22;32398;49.112;8.598;2023-04-08T09:33:44;10.40;86.00
46139;DHT22;32398;49.112;8.598;2023-04-08T09:36:11;10.50;85.70
46139;DHT22;32398;49.112;8.598;2023-04-08T09:38:38;10.50;85.50
46139;DHT22;32398;49.112;8.598;2023-04-08T09:41:05;10.50;85.10
46139;DHT22;32398;49.112;8.598;2023-04-08T09:43:33;10.50;84.70
46139;DHT22;32398;49.112;8.598;2023-04-08T09:46:01;10.60;84.10
46139;DHT22;32398;49.112;8.598;2023-04-08T09:48:32;10.60;83.80
46139;DHT22;32398;49.112;8.598;2023-04-08T09:51:00;10.70;83.70
46139;DHT22;32398;49.112;8.598;2023-04-08T09:53:28;10.70;83.10
46139;DHT22;32398;49.112;8.598;2023-04-08T09:55:56;10.80;82.80
46139;DHT22;32398;49.112;8.598;2023-04-08T09:58:24;10.90;82.30
46139;DHT22;32398;49.112;8.598;2023-04-08T10:00:54;10.90;82.10
46139;DHT22;32398;49.112;8.598;2023-04-08T10:03:24;11.00;81.70
46139;DHT22;32398;49.112;8.598;2023-04-08T10:05:52;11.00;80.30
46139;DHT22;32398;49.112;8.598;2023-04-08T10:08:20;11.10;78.90
46139;DHT22;32398;49.112;8.598;2023-04-08T10:10:47;11.20;79.10
46139;DHT22;32398;49.112;8.598;2023-04-08T10:13:14;11.30;79.10
46139;DHT22;32398;49.112;8.598;2023-04-08T10:15:40;11.40;79.10
46139;DHT22;32398;49.112;8.598;2023-04-08T10:20:53;11.40;78.10
46139;DHT22;32398;49.112;8.598;2023-04-08T10:23:20;11.50;77.70
46139;DHT22;32398;49.112;8.598;2023-04-08T10:26:09;11.50;77.40
46139;DHT22;32398;49.112;8.598;2023-04-08T10:28:55;11.50;76.30
46139;DHT22;32398;49.112;8.598;2023-04-08T10:31:21;11.50;76.40
46139;DHT22;32398;49.112;8.598;2023-04-08T10:33:48;11.50;76.50
46139;DHT22;32398;49.112;8.598;2023-04-08T10:36:16;11.50;76.30
46139;DHT22;32398;49.112;8.598;2023-04-08T10:38:42;11.50;76.20
46139;DHT22;32398;49.112;8.598;2023-04-08T10:41:11;11.60;75.90
46139;DHT22;32398;49.112;8.598;2023-04-08T10:43:40;11.50;75.70
46139;DHT22;32398;49.112;8.598;2023-04-08T10:46:09;11.50;75.70
46139;DHT22;32398;49.112;8.598;2023-04-08T10:48:35;11.50;75.30
46139;DHT22;32398;49.112;8.598;2023-04-08T10:51:02;11.50;75.30
46139;DHT22;32398;49.112;8.598;2023-04-08T10:53:31;11.50;75.10
46139;DHT22;32398;49.112;8.598;2023-04-08T10:56:07;11.50;74.80
46139;DHT22;32398;49.112;8.598;2023-04-08T10:58:35;11.50;74.80
46139;DHT22;32398;49.112;8.598;2023-04-08T11:01:02;11.50;74.60
46139;DHT22;32398;49.112;8.598;2023-04-08T11:03:30;11.60;74.60
46139;DHT22;32398;49.112;8.598;2023-04-08T11:05:58;11.50;74.40
46139;DHT22;32398;49.112;8.598;2023-04-08T11:08:26;11.60;74.10
46139;DHT22;32398;49.112;8.598;2023-04-08T11:10:54;11.60;73.70
46139;DHT22;32398;49.112;8.598;2023-04-08T11:13:21;11.60;74.10
46139;DHT22;32398;49.112;8.598;2023-04-08T11:15:47;11.60;74.00
46139;DHT22;32398;49.112;8.598;2023-04-08T11:18:15;11.60;73.60
46139;DHT22;32398;49.112;8.598;2023-04-08T11:20:42;12.00;73.60
46139;DHT22;32398;49.112;8.598;2023-04-08T11:23:11;11.60;73.20
46139;DHT22;32398;49.112;8.598;2023-04-08T11:25:37;11.60;72.70
46139;DHT22;32398;49.112;8.598;2023-04-08T11:28:06;11.60;72.60
46139;DHT22;32398;49.112;8.598;2023-04-08T11:30:32;11.60;72.80
46139;DHT22;32398;49.112;8.598;2023-04-08T11:32:59;11.60;72.60
46139;DHT22;32398;49.112;8.598;2023-04-08T11:35:27;11.60;72.20
46139;DHT22;32398;49.112;8.598;2023-04-08T11:37:55;11.70;72.10
46139;DHT22;32398;49.112;8.598;2023-04-08T11:40:21;11.70;71.90
46139;DHT22;32398;49.112;8.598;2023-04-08T11:42:48;11.70;71.50
46139;DHT22;32398;49.112;8.598;2023-04-08T11:45:17;11.70;70.80
46139;DHT22;32398;49.112;8.598;2023-04-08T11:47:45;11.70;70.20
46139;DHT22;32398;49.112;8.598;2023-04-08T11:50:12;11.80;69.60
46139;DHT22;32398;49.112;8.598;2023-04-08T11:52:39;11.80;69.20
46139;DHT22;32398;49.112;8.598;2023-04-08T11:55:06;11.80;69.20
46139;DHT22;32398;49.112;8.598;2023-04-08T11:57:33;11.90;69.00
46139;DHT22;32398;49.112;8.598;2023-04-08T12:00:00;11.90;68.80
46139;DHT22;32398;49.112;8.598;2023-04-08T12:02:28;11.90;69.10
46139;DHT22;32398;49.112;8.598;2023-04-08T12:04:55;11.90;69.10
46139;DHT22;32398;49.112;8.598;2023-04-08T12:07:22;12.00;69.00
46139;DHT22;32398;49.112;8.598;2023-04-08T12:09:48;12.00;68.80
46139;DHT22;32398;49.112;8.598;2023-04-08T12:12:15;12.10;69.20
46139;DHT22;32398;49.112;8.598;2023-04-08T12:14:41;12.10;69.20
46139;DHT22;32398;49.112;8.598;2023-04-08T12:17:08;12.10;69.10
46139;DHT22;32398;49.112;8.598;2023-04-08T12:19:36;12.10;69.10
46139;DHT22;32398;49.112;8.598;2023-04-08T12:22:02;12.10;69.20
46139;DHT22;32398;49.112;8.598;2023-04-08T12:24:29;12.10;69.00
46139;DHT22;32398;49.112;8.598;2023-04-08T12:26:55;12.10;68.80
46139;DHT22;32398;49.112;8.598;2023-04-08T12:29:22;12.20;69.30
46139;DHT22;32398;49.112;8.598;2023-04-08T12:31:48;12.20;69.40
46139;DHT22;32398;49.112;8.598;2023-04-08T12:34:15;12.20;69.60
46139;DHT22;32398;49.112;8.598;2023-04-08T12:36:43;12.30;69.90
46139;DHT22;32398;49.112;8.598;2023-04-08T12:39:10;12.20;69.80
46139;DHT22;32398;49.112;8.598;2023-04-08T12:41:36;12.20;69.80
46139;DHT22;32398;49.112;8.598;2023-04-08T12:44:03;12.30;69.90
46139;DHT22;32398;49.112;8.598;2023-04-08T12:46:30;12.30;69.80
46139;DHT22;32398;49.112;8.598;2023-04-08T12:48:56;12.30;69.00
46139;DHT22;32398;49.112;8.598;2023-04-08T12:51:23;12.30;69.10
46139;DHT22;32398;49.112;8.598;2023-04-08T12:53:51;12.30;69.10
46139;DHT22;32398;49.112;8.598;2023-04-08T12:56:18;12.40;69.30
46139;DHT22;32398;49.112;8.598;2023-04-08T12:58:45;12.40;69.30
46139;DHT22;32398;49.112;8.598;2023-04-08T13:01:12;12.40;69.20
46139;DHT22;32398;49.112;8.598;2023-04-08T13:03:38;12.50;69.00
46139;DHT22;32398;49.112;8.598;2023-04-08T13:06:06;12.70;68.70
46139;DHT22;32398;49.112;8.598;2023-04-08T13:08:33;12.50;68.30
46139;DHT22;32398;49.112;8.598;2023-04-08T13:11:01;12.60;68.40
46139;DHT22;32398;49.112;8.598;2023-04-08T13:13:28;12.60;68.10
46139;DHT22;32398;49.112;8.598;2023-04-08T13:15:54;12.70;67.40
46139;DHT22;32398;49.112;8.598;2023-04-08T13:18:22;12.70;67.50
46139;DHT22;32398;49.112;8.598;2023-04-08T13:20:48;12.80;67.60
46139;DHT22;32398;49.112;8.598;2023-04-08T13:23:15;12.90;67.60
46139;DHT22;32398;49.112;8.598;2023-04-08T13:25:42;12.90;66.60
46139;DHT22;32398;49.112;8.598;2023-04-08T13:28:11;13.00;65.90
46139;DHT22;32398;49.112;8.598;2023-04-08T13:30:37;13.00;65.80
46139;DHT22;32398;49.112;8.598;2023-04-08T13:33:04;13.10;65.70
46139;DHT22;32398;49.112;8.598;2023-04-08T13:35:30;13.10;65.90
46139;DHT22;32398;49.112;8.598;2023-04-08T13:37:57;13.10;65.90
46139;DHT22;32398;49.112;8.598;2023-04-08T13:40:23;13.20;65.50
46139;DHT22;32398;49.112;8.598;2023-04-08T13:42:51;13.20;65.30
46139;DHT22;32398;49.112;8.598;2023-04-08T13:45:19;13.20;65.20
46139;DHT22;32398;49.112;8.598;2023-04-08T13:47:45;13.30;65.10
46139;DHT22;32398;49.112;8.598;2023-04-08T13:50:12;13.30;64.50
46139;DHT22;32398;49.112;8.598;2023-04-08T13:52:39;13.30;64.60
46139;DHT22;32398;49.112;8.598;2023-04-08T13:55:06;13.40;64.60
46139;DHT22;32398;49.112;8.598;2023-04-08T13:57:32;13.50;62.90
46139;DHT22;32398;49.112;8.598;2023-04-08T13:59:59;13.60;63.50
46139;DHT22;32398;49.112;8.598;2023-04-08T14:02:27;13.70;64.10
46139;DHT22;32398;49.112;8.598;2023-04-08T14:04:53;13.70;63.80
46139;DHT22;32398;49.112;8.598;2023-04-08T14:07:20;13.80;63.10
46139;DHT22;32398;49.112;8.598;2023-04-08T14:09:47;14.00;63.40
46139;DHT22;32398;49.112;8.598;2023-04-08T14:12:14;14.00;62.10
46139;DHT22;32398;49.112;8.598;2023-04-08T14:14:40;14.10;61.50
46139;DHT22;32398;49.112;8.598;2023-04-08T14:17:07;14.10;62.30
46139;DHT22;32398;49.112;8.598;2023-04-08T14:19:35;14.20;62.20
46139;DHT22;32398;49.112;8.598;2023-04-08T14:22:01;14.30;61.80
46139;DHT22;32398;49.112;8.598;2023-04-08T14:24:28;14.40;62.20
46139;DHT22;32398;49.112;8.598;2023-04-08T14:26:55;14.40;62.00
46139;DHT22;32398;49.112;8.598;2023-04-08T14:29:22;14.50;61.10
46139;DHT22;32398;49.112;8.598;2023-04-08T14:31:48;14.50;61.30
46139;DHT22;32398;49.112;8.598;2023-04-08T14:34:15;14.60;61.70
46139;DHT22;32398;49.112;8.598;2023-04-08T14:36:43;14.60;62.30
46139;DHT22;32398;49.112;8.598;2023-04-08T14:39:09;14.60;62.50
46139;DHT22;32398;49.112;8.598;2023-04-08T14:41:36;14.60;61.80
46139;DHT22;32398;49.112;8.598;2023-04-08T14:44:03;14.60;62.00
46139;DHT22;32398;49.112;8.598;2023-04-08T14:46:29;14.60;62.50
46139;DHT22;32398;49.112;8.598;2023-04-08T14:48:56;14.60;62.50
46139;DHT22;32398;49.112;8.598;2023-04-08T14:51:23;14.60;62.80
46139;DHT22;32398;49.112;8.598;2023-04-08T14:53:51;14.50;62.80
46139;DHT22;32398;49.112;8.598;2023-04-08T14:56:17;14.50;63.30
46139;DHT22;32398;49.112;8.598;2023-04-08T14:58:44;14.40;63.40
46139;DHT22;32398;49.112;8.598;2023-04-08T15:01:10;14.40;63.20
46139;DHT22;32398;49.112;8.598;2023-04-08T15:03:37;14.40;63.30
46139;DHT22;32398;49.112;8.598;2023-04-08T15:06:04;14.40;63.40
46139;DHT22;32398;49.112;8.598;2023-04-08T15:08:30;14.40;63.90
46139;DHT22;32398;49.112;8.598;2023-04-08T15:11:00;14.40;63.80
46139;DHT22;32398;49.112;8.598;2023-04-08T15:13:27;14.30;63.70
46139;DHT22;32398;49.112;8.598;2023-04-08T15:15:53;14.30;63.70
46139;DHT22;32398;49.112;8.598;2023-04-08T15:18:20;14.30;63.80
46139;DHT22;32398;49.112;8.598;2023-04-08T15:20:46;14.30;63.90
46139;DHT22;32398;49.112;8.598;2023-04-08T15:23:13;14.20;63.60
46139;DHT22;32398;49.112;8.598;2023-04-08T15:25:39;14.20;63.70
46139;DHT22;32398;49.112;8.598;2023-04-08T15:28:07;14.20;63.90
46139;DHT22;32398;49.112;8.598;2023-04-08T15:30:34;14.20;64.00
46139;DHT22;32398;49.112;8.598;2023-04-08T15:33:01;14.20;64.20
46139;DHT22;32398;49.112;8.598;2023-04-08T15:35:28;14.20;64.50
46139;DHT22;32398;49.112;8.598;2023-04-08T15:37:54;14.20;64.40
46139;DHT22;32398;49.112;8.598;2023-04-08T15:40:21;14.10;64.40